Time;durP1;ratioP1;P1;durP2;ratioP2;P2;SDS_P1;SDS_P2;PMS_P1;PMS_P2;Temp;Humidity;BMP_temperature;BMP_pressure;BME280_temperature;BME280_humidity;BME280_pressure;Samples;Min_cycle;Max_cycle;Signal;HPM_P1;HPM_P2
2023/05/18 00:02:22;;;;;;;3.30;1.52;;;;;;;12.16;29.80;102282.31;4951095;28;20491;-85
2023/05/18 00:04:50;;;;;;;3.58;1.63;;;;;;;12.11;30.05;102271.69;4950744;28;20066;-85
2023/05/18 00:07:18;;;;;;;6.05;1.88;;;;;;;12.10;29.95;102267.16;4965524;28;20047;-85
2023/05/18 00:09:46;;;;;;;4.68;2.30;;;;;;;12.08;30.15;102264.53;4967280;28;20078;-86
2023/05/18 00:12:17;;;;;;;5.35;2.00;;;;;;;12.06;29.82;102265.63;4971680;28;20133;-85
2023/05/18 00:14:45;;;;;;;5.53;2.33;;;;;;;12.04;29.69;102268.50;4968527;28;20113;-85
2023/05/18 00:17:14;;;;;;;5.22;1.90;;;;;;;12.03;29.62;102266.75;4945855;28;20094;-86
2023/05/18 00:19:45;;;;;;;4.68;2.00;;;;;;;12.04;30.16;102273.09;4972632;28;20051;-85
2023/05/18 00:22:16;;;;;;;5.28;1.88;;;;;;;12.00;29.82;102280.66;4952941;28;20472;-85
2023/05/18 00:24:45;;;;;;;3.88;2.03;;;;;;;11.99;30.11;102275.28;4955268;28;20598;-84
2023/05/18 00:27:13;;;;;;;4.10;2.00;;;;;;;11.98;30.25;102274.41;4950663;28;20404;-84
2023/05/18 00:29:41;;;;;;;5.50;2.17;;;;;;;11.98;30.28;102276.25;4965753;28;20098;-84
2023/05/18 00:32:12;;;;;;;5.65;1.92;;;;;;;11.97;30.15;102275.38;4950989;28;20039;-84
2023/05/18 00:34:45;;;;;;;5.32;2.50;;;;;;;11.98;30.11;102277.16;4961108;28;20106;-84
2023/05/18 00:37:14;;;;;;;4.47;2.17;;;;;;;12.00;30.54;102282.53;4951736;28;20094;-85
2023/05/18 00:42:24;;;;;;;4.93;2.20;;;;;;;12.00;30.10;102275.19;5083478;28;20422;-67
2023/05/18 00:44:52;;;;;;;5.30;2.00;;;;;;;11.99;30.17;102275.28;5082334;28;20447;-66
2023/05/18 00:47:20;;;;;;;4.50;2.30;;;;;;;11.99;30.41;102267.94;5083345;28;20049;-66
2023/05/18 00:49:48;;;;;;;4.85;2.33;;;;;;;11.99;30.13;102265.19;5082223;28;20419;-66
2023/05/18 00:52:17;;;;;;;5.55;1.95;;;;;;;11.99;30.11;102265.19;5082340;28;20089;-66
2023/05/18 00:54:45;;;;;;;5.22;2.03;;;;;;;12.01;30.24;102270.56;5079024;28;20420;-66
2023/05/18 00:57:13;;;;;;;4.22;1.98;;;;;;;11.98;30.30;102266.16;5041201;28;20073;-66
2023/05/18 00:59:46;;;;;;;5.28;2.40;;;;;;;11.99;30.26;102270.69;5043435;28;20033;-66
2023/05/18 01:02:15;;;;;;;4.00;2.08;;;;;;;11.97;30.07;102271.75;5042667;28;20092;-67
2023/05/18 01:04:43;;;;;;;5.60;2.40;;;;;;;11.94;30.69;102270.13;5042274;28;20443;-66
2023/05/18 01:07:11;;;;;;;4.28;2.08;;;;;;;11.93;30.45;102273.88;5022614;28;20539;-67
2023/05/18 01:09:39;;;;;;;6.00;2.30;;;;;;;11.92;30.35;102271.22;5023786;28;20754;-67
2023/05/18 01:12:15;;;;;;;3.92;2.28;;;;;;;11.92;30.63;102269.34;5036291;28;20064;-67
2023/05/18 01:14:52;;;;;;;5.47;2.10;;;;;;;11.90;30.94;102268.59;5040903;28;20115;-67
2023/05/18 01:17:32;;;;;;;4.78;2.10;;;;;;;11.87;30.74;102267.94;5042527;28;20522;-67
2023/05/18 01:20:23;;;;;;;3.45;1.98;;;;;;;11.85;30.81;102264.41;5041603;28;20084;-67
2023/05/18 01:23:08;;;;;;;4.95;1.80;;;;;;;11.83;31.12;102271.88;5041912;28;20049;-67
2023/05/18 01:25:47;;;;;;;5.68;2.20;;;;;;;11.80;31.04;102272.97;5042713;28;20539;-67
2023/05/18 01:28:20;;;;;;;5.40;2.03;;;;;;;11.77;30.62;102269.56;5041923;28;20099;-67
2023/05/18 01:30:48;;;;;;;;;;;;;;;11.46;31.54;102271.69;5039021;28;20046;-67
2023/05/18 01:33:16;;;;;;;5.55;2.00;;;;;;;11.65;30.48;102277.66;5042087;28;19925;-67
2023/05/18 01:35:46;;;;;;;5.43;2.33;;;;;;;11.65;30.69;102269.44;5040610;28;20045;-67
2023/05/18 01:38:17;;;;;;;6.45;2.67;;;;;;;11.64;30.62;102266.78;5043816;28;20053;-67
2023/05/18 01:41:00;;;;;;;6.55;2.75;;;;;;;11.62;30.84;102272.41;5040187;28;20135;-67
2023/05/18 01:43:33;;;;;;;4.57;1.90;;;;;;;11.56;30.86;102264.56;5041841;28;20049;-67
2023/05/18 01:46:10;;;;;;;5.25;2.10;;;;;;;11.53;31.04;102261.16;5050915;22;20028;-67
2023/05/18 01:48:48;;;;;;;5.10;2.35;;;;;;;11.50;31.07;102256.75;5012641;28;20034;-67
2023/05/18 01:51:20;;;;;;;6.40;2.40;;;;;;;11.44;30.84;102259.94;5018510;28;20176;-67
2023/05/18 01:53:57;;;;;;;7.15;2.08;;;;;;;11.42;31.29;102264.63;5000014;28;20050;-67
2023/05/18 01:56:26;;;;;;;6.88;2.50;;;;;;;11.35;31.20;102266.94;4961734;28;20426;-67
2023/05/18 01:58:55;;;;;;;5.47;2.15;;;;;;;11.34;30.79;102267.03;4964315;28;20074;-67
2023/05/18 02:01:24;;;;;;;5.57;2.38;;;;;;;11.28;31.02;102260.13;4959086;28;20035;-67
2023/05/18 02:03:52;;;;;;;6.70;2.83;;;;;;;11.26;30.99;102261.19;4959255;28;20174;-67
2023/05/18 02:06:20;;;;;;;5.20;2.10;;;;;;;11.21;31.40;102272.50;4964831;28;20051;-67
2023/05/18 02:08:49;;;;;;;4.88;2.35;;;;;;;11.18;31.11;102271.81;4960598;28;20407;-67
2023/05/18 02:11:18;;;;;;;6.60;2.65;;;;;;;11.13;31.31;102266.66;4994229;28;20505;-68
2023/05/18 02:13:45;;;;;;;5.03;2.10;;;;;;;11.08;31.35;102266.06;5002046;28;20165;-67
2023/05/18 02:16:15;;;;;;;5.10;2.28;;;;;;;11.07;31.64;102271.63;5000524;28;20050;-67
2023/05/18 02:18:43;;;;;;;4.80;2.28;;;;;;;11.02;31.24;102271.09;5011489;28;20118;-67
2023/05/18 02:21:12;;;;;;;5.00;2.45;;;;;;;10.99;31.40;102270.28;5004604;28;20124;-68
2023/05/18 02:23:41;;;;;;;4.45;2.20;;;;;;;10.96;31.63;102272.38;5006770;28;20060;-68
2023/05/18 02:26:09;;;;;;;5.20;2.53;;;;;;;10.92;31.49;102270.81;5002287;28;20477;-67
2023/05/18 02:28:39;;;;;;;4.50;2.33;;;;;;;10.89;31.72;102268.31;5004914;28;20651;-67
2023/05/18 02:31:08;;;;;;;4.15;2.08;;;;;;;10.86;31.76;102272.09;5014166;28;20101;-67
2023/05/18 02:33:39;;;;;;;4.25;2.40;;;;;;;10.85;31.74;102267.59;5005917;28;20100;-67
2023/05/18 02:36:09;;;;;;;6.30;2.15;;;;;;;10.81;31.71;102266.03;4998574;28;20500;-68
2023/05/18 02:38:38;;;;;;;5.82;2.45;;;;;;;10.78;31.63;102268.13;5010998;28;20045;-67
2023/05/18 02:41:07;;;;;;;4.38;2.40;;;;;;;10.74;31.65;102269.28;4995179;28;20049;-67
2023/05/18 02:43:35;;;;;;;6.55;2.67;;;;;;;10.70;31.83;102276.84;5010233;28;20136;-67
2023/05/18 02:46:04;;;;;;;4.45;2.33;;;;;;;10.66;32.06;102269.78;4998172;28;20050;-67
2023/05/18 02:48:33;;;;;;;5.18;2.50;;;;;;;10.62;31.80;102273.72;5002831;28;20052;-67
2023/05/18 02:51:02;;;;;;;4.47;2.33;;;;;;;10.59;32.08;102272.06;5007942;28;20156;-67
2023/05/18 02:53:30;;;;;;;5.25;2.55;;;;;;;10.56;32.29;102276.88;5015780;28;20460;-67
2023/05/18 02:56:03;;;;;;;;;;;;;;;10.27;33.09;102277.81;5011129;28;20468;-67
2023/05/18 02:58:43;;;;;;;4.40;2.40;;;;;;;10.45;32.16;102283.00;5000720;28;20530;-67
2023/05/18 03:01:21;;;;;;;6.43;2.53;;;;;;;10.46;32.00;102282.03;5000592;28;20480;-67
2023/05/18 03:03:52;;;;;;;6.95;2.60;;;;;;;10.44;32.08;102277.63;5001323;28;20038;-67
2023/05/18 03:06:25;;;;;;;8.52;2.55;;;;;;;10.42;32.22;102285.94;5023286;28;20076;-67
2023/05/18 03:08:54;;;;;;;5.15;2.25;;;;;;;10.39;32.47;102283.41;5022278;28;20537;-67
2023/05/18 03:11:28;;;;;;;4.57;2.55;;;;;;;10.36;32.51;102272.66;4998984;28;20050;-67
2023/05/18 03:13:56;;;;;;;4.65;2.50;;;;;;;10.34;32.60;102273.72;5001829;28;20068;-67
2023/05/18 03:16:27;;;;;;;6.30;2.83;;;;;;;10.34;32.24;102279.19;5002050;28;20771;-68
2023/05/18 03:18:57;;;;;;;5.70;2.63;;;;;;;10.30;32.55;102286.72;5023392;28;20068;-67
2023/05/18 03:21:32;;;;;;;6.25;2.60;;;;;;;10.32;32.75;102283.91;5015834;28;20046;-67
2023/05/18 03:24:01;;;;;;;5.85;2.80;;;;;;;10.28;32.56;102277.72;4996317;28;20133;-67
2023/05/18 03:26:31;;;;;;;6.25;2.58;;;;;;;10.27;32.58;102281.44;5010756;28;20045;-67
2023/05/18 03:29:00;;;;;;;6.32;2.55;;;;;;;10.26;32.58;102278.78;5009532;28;20045;-67
2023/05/18 03:31:28;;;;;;;4.93;2.70;;;;;;;10.23;32.77;102285.38;5010549;28;20049;-68
2023/05/18 03:33:58;;;;;;;5.97;2.80;;;;;;;10.22;33.06;102281.75;5006032;28;20076;-68
2023/05/18 03:36:26;;;;;;;7.18;2.75;;;;;;;10.20;32.85;102280.97;5007044;28;20056;-69
2023/05/18 03:38:56;;;;;;;7.63;2.95;;;;;;;10.19;32.73;102278.31;5014589;28;20497;-67
2023/05/18 03:41:24;;;;;;;6.22;3.00;;;;;;;10.16;32.69;102279.38;5004228;28;20053;-67
2023/05/18 03:43:54;;;;;;;6.38;2.90;;;;;;;10.14;32.79;102273.16;4999653;28;20125;-67
2023/05/18 03:46:22;;;;;;;5.68;2.55;;;;;;;10.12;33.25;102272.38;4993902;28;20054;-67
2023/05/18 03:48:52;;;;;;;4.63;2.88;;;;;;;10.11;33.24;102272.44;5003276;28;20046;-67
2023/05/18 03:51:25;;;;;;;5.68;2.60;;;;;;;10.10;32.99;102281.63;5003573;28;20050;-67
2023/05/18 03:53:53;;;;;;;5.38;3.08;;;;;;;10.08;32.98;102275.38;4996847;28;20083;-68
2023/05/18 03:56:23;;;;;;;5.20;3.22;;;;;;;10.08;33.45;102273.50;5004898;28;20054;-67
2023/05/18 03:58:51;;;;;;;6.55;2.70;;;;;;;10.05;33.04;102281.94;5001138;28;20054;-67
2023/05/18 04:01:22;;;;;;;5.60;2.72;;;;;;;10.04;33.15;102279.28;4998136;28;20096;-67
2023/05/18 04:03:54;;;;;;;6.30;2.92;;;;;;;10.04;32.98;102280.16;5015908;28;20576;-67
2023/05/18 04:06:25;;;;;;;4.82;2.80;;;;;;;10.04;33.31;102276.56;5001512;28;20054;-67
2023/05/18 04:08:53;;;;;;;6.05;3.42;;;;;;;10.02;33.09;102276.66;5002988;28;20050;-67
2023/05/18 04:11:22;;;;;;;5.97;3.35;;;;;;;10.02;33.22;102278.50;5000370;28;20054;-67
2023/05/18 04:13:50;;;;;;;5.82;3.00;;;;;;;9.98;33.29;102277.84;4996412;28;20553;-68
2023/05/18 04:16:20;;;;;;;5.18;3.08;;;;;;;9.96;33.43;102282.50;4994253;28;20053;-67
2023/05/18 04:18:48;;;;;;;6.20;3.33;;;;;;;9.94;33.59;102278.09;4998261;28;20046;-68
2023/05/18 04:21:18;;;;;;;6.38;2.92;;;;;;;9.93;33.52;102284.53;5006057;28;20053;-67
2023/05/18 04:23:47;;;;;;;6.45;3.25;;;;;;;9.91;33.40;102291.94;5004326;28;20052;-67
2023/05/18 04:26:18;;;;;;;6.45;2.95;;;;;;;9.89;33.63;102289.34;4999394;28;20085;-67
2023/05/18 04:28:48;;;;;;;4.72;2.92;;;;;;;9.90;33.74;102291.09;5007638;28;20099;-67
2023/05/18 04:31:17;;;;;;;6.97;3.08;;;;;;;9.87;33.78;102301.34;4995530;28;20108;-67
2023/05/18 04:33:46;;;;;;;5.70;2.97;;;;;;;9.85;33.89;102295.97;4992825;28;20104;-67
2023/05/18 04:36:18;;;;;;;5.40;3.17;;;;;;;9.84;33.47;102307.88;5004927;28;20168;-67
2023/05/18 04:38:50;;;;;;;5.82;3.05;;;;;;;9.82;33.92;102305.22;5005632;28;20058;-67
2023/05/18 04:41:21;;;;;;;6.00;3.13;;;;;;;9.82;33.61;102301.63;5003200;28;20062;-67
2023/05/18 04:43:51;;;;;;;5.30;3.03;;;;;;;9.84;34.29;102305.13;5003177;28;20042;-67
2023/05/18 04:46:21;;;;;;;6.28;3.40;;;;;;;9.81;33.88;102302.59;4994630;28;20052;-67
2023/05/18 04:48:51;;;;;;;5.82;3.03;;;;;;;9.81;33.95;102299.88;5002308;28;20133;-67
2023/05/18 04:51:20;;;;;;;5.85;3.22;;;;;;;9.79;33.74;102302.69;5001676;28;20062;-67
2023/05/18 04:53:49;;;;;;;4.88;2.90;;;;;;;9.81;33.78;102308.06;5011140;28;20126;-67
2023/05/18 04:56:17;;;;;;;5.15;3.05;;;;;;;9.83;33.84;102306.09;4998690;28;20062;-67
2023/05/18 04:58:46;;;;;;;5.82;3.47;;;;;;;9.80;34.04;102309.94;5001189;28;20045;-67
2023/05/18 05:01:16;;;;;;;4.65;3.03;;;;;;;9.83;34.46;102312.47;5002226;28;20093;-67
2023/05/18 05:03:44;;;;;;;5.63;3.22;;;;;;;9.82;34.30;102309.84;5002049;28;20046;-67
2023/05/18 05:06:13;;;;;;;6.00;3.00;;;;;;;9.82;34.40;102313.44;5002029;28;20042;-67
2023/05/18 05:08:40;;;;;;;4.50;2.97;;;;;;;9.85;34.50;102315.09;5005686;28;20234;-67
2023/05/18 05:11:08;;;;;;;6.13;3.78;;;;;;;9.89;34.55;102310.34;4998549;28;20081;-67
2023/05/18 05:13:36;;;;;;;5.45;3.08;;;;;;;9.94;34.50;102314.53;4997868;28;20134;-67
2023/05/18 05:16:04;;;;;;;6.22;3.35;;;;;;;9.99;34.49;102312.38;5000856;28;20084;-67
2023/05/18 05:18:34;;;;;;;5.68;3.10;;;;;;;10.09;34.72;102312.69;5011656;28;20420;-67
2023/05/18 05:21:02;;;;;;;4.93;2.80;;;;;;;10.11;34.76;102314.38;5003620;28;20049;-67
2023/05/18 05:23:30;;;;;;;5.20;3.55;;;;;;;10.17;34.69;102315.81;5004670;28;20446;-67
2023/05/18 05:25:58;;;;;;;4.78;3.13;;;;;;;10.22;34.66;102311.84;5010062;28;20050;-67
2023/05/18 05:28:27;;;;;;;6.28;2.97;;;;;;;10.31;34.42;102304.03;5001891;28;20508;-67
2023/05/18 05:30:55;;;;;;;6.15;3.13;;;;;;;10.37;34.43;102309.09;4998289;28;20406;-67
2023/05/18 05:33:23;;;;;;;6.65;2.90;;;;;;;10.43;34.93;102317.78;5006463;28;20042;-67
2023/05/18 05:35:53;;;;;;;4.80;2.78;;;;;;;10.51;34.66;102317.31;5006836;28;20057;-67
2023/05/18 05:38:21;;;;;;;6.60;3.15;;;;;;;10.54;34.73;102312.56;5008890;28;20052;-67
2023/05/18 05:40:49;;;;;;;4.03;2.63;;;;;;;10.65;34.41;102317.31;5012761;28;20594;-67
2023/05/18 05:43:17;;;;;;;4.65;2.67;;;;;;;10.73;34.77;102322.31;5002054;28;20046;-67
2023/05/18 05:45:46;;;;;;;6.10;3.30;;;;;;;10.81;34.78;102322.69;5001890;28;20100;-67
2023/05/18 05:48:14;;;;;;;4.68;2.92;;;;;;;10.88;34.40;102313.09;5007182;28;20046;-66
2023/05/18 05:50:42;;;;;;;5.32;2.88;;;;;;;10.97;34.63;102321.59;5007379;28;20108;-67
2023/05/18 05:53:11;;;;;;;6.85;2.70;;;;;;;11.07;34.54;102316.34;5003274;28;20100;-67
2023/05/18 05:55:40;;;;;;;7.03;3.10;;;;;;;11.11;34.12;102312.44;5009627;28;20227;-67
2023/05/18 05:58:15;;;;;;;6.65;3.33;;;;;;;11.17;33.89;102325.72;5003096;28;20050;-67
2023/05/18 06:00:47;;;;;;;5.82;2.70;;;;;;;11.25;33.95;102320.59;4999669;28;20046;-67
2023/05/18 06:03:15;;;;;;;6.18;3.30;;;;;;;11.32;34.27;102330.16;5000916;28;20046;-67
2023/05/18 06:05:45;;;;;;;8.13;3.10;;;;;;;11.41;34.08;102327.78;4995753;28;20049;-67
2023/05/18 06:08:16;;;;;;;7.03;2.83;;;;;;;11.48;34.10;102326.38;4996165;28;20652;-67
2023/05/18 06:10:46;;;;;;;5.57;2.88;;;;;;;11.53;34.28;102325.09;5001353;28;20062;-67
2023/05/18 06:13:14;;;;;;;5.55;2.72;;;;;;;11.63;33.96;102329.03;5021085;28;20564;-67
2023/05/18 06:15:50;;;;;;;6.30;2.67;;;;;;;11.71;33.92;102323.88;5012821;28;20042;-67
2023/05/18 06:18:18;;;;;;;4.55;3.08;;;;;;;11.82;34.15;102324.97;5007942;28;20456;-68
2023/05/18 06:20:48;;;;;;;4.95;2.50;;;;;;;11.92;34.08;102326.09;4998986;28;20097;-67
2023/05/18 06:23:21;;;;;;;4.53;2.25;;;;;;;12.05;33.66;102327.84;4998266;28;20046;-67
2023/05/18 06:26:01;;;;;;;6.13;2.45;;;;;;;12.10;33.50;102333.91;5003645;28;20549;-68
2023/05/18 06:28:48;;;;;;;5.53;2.30;;;;;;;12.22;33.67;102331.28;5007295;28;20065;-68
2023/05/18 06:31:33;;;;;;;5.75;2.80;;;;;;;12.32;33.17;102324.13;4998723;28;20416;-67
2023/05/18 06:34:08;;;;;;;4.70;2.10;;;;;;;12.42;33.75;102330.72;4996103;28;20086;-67
2023/05/18 06:36:36;;;;;;;5.45;2.33;;;;;;;12.53;33.25;102325.34;5002140;28;20045;-67
2023/05/18 06:39:06;;;;;;;5.18;2.38;;;;;;;12.64;33.13;102327.31;4999890;28;20037;-67
2023/05/18 06:41:34;;;;;;;7.00;2.97;;;;;;;12.72;32.80;102330.38;4999725;28;20689;-67
2023/05/18 06:44:02;;;;;;;4.53;2.35;;;;;;;12.80;33.04;102328.81;5000685;28;20174;-67
2023/05/18 06:46:35;;;;;;;3.70;2.15;;;;;;;12.92;33.03;102334.41;5003813;28;20085;-69
2023/05/18 06:49:10;;;;;;;5.60;2.30;;;;;;;12.99;32.39;102339.34;4999542;28;20402;-69
2023/05/18 06:51:40;;;;;;;5.50;2.70;;;;;;;13.06;32.77;102335.13;5001657;28;20046;-69
2023/05/18 06:54:09;;;;;;;5.55;2.78;;;;;;;13.16;32.13;102340.84;5001096;28;20038;-67
2023/05/18 06:56:37;;;;;;;4.90;2.50;;;;;;;13.21;31.98;102339.47;5000596;28;20139;-67
2023/05/18 06:59:05;;;;;;;5.78;2.53;;;;;;;13.25;31.94;102343.78;4994019;28;20785;-67
2023/05/18 07:01:33;;;;;;;7.22;2.95;;;;;;;13.30;32.25;102337.91;4996848;28;20054;-67
2023/05/18 07:04:03;;;;;;;4.95;2.55;;;;;;;13.36;31.82;102340.22;4996699;28;20498;-68
2023/05/18 07:06:31;;;;;;;4.85;2.35;;;;;;;13.41;31.69;102342.59;4995562;28;20054;-56
2023/05/18 07:09:00;;;;;;;5.90;2.60;;;;;;;13.47;32.18;102348.50;4999279;28;20117;-60
2023/05/18 07:11:29;;;;;;;7.32;2.60;;;;;;;13.54;31.47;102344.28;5000325;28;20073;-55
2023/05/18 07:13:57;;;;;;;4.78;2.10;;;;;;;13.59;32.06;102341.22;5008389;28;20069;-59
2023/05/18 07:16:26;;;;;;;4.47;1.95;;;;;;;13.68;31.45;102347.91;4995573;28;20753;-57
2023/05/18 07:18:54;;;;;;;5.43;2.35;;;;;;;13.71;31.20;102336.63;5002023;28;20045;-58
2023/05/18 07:21:22;;;;;;;5.82;2.30;;;;;;;13.77;31.28;102348.06;4999898;28;20508;-57
2023/05/18 07:23:51;;;;;;;3.50;2.05;;;;;;;13.83;31.59;102352.22;5001865;28;20057;-59
2023/05/18 07:26:21;;;;;;;4.90;2.17;;;;;;;13.87;31.34;102356.47;5001910;28;20140;-68
2023/05/18 07:28:51;;;;;;;7.13;2.47;;;;;;;13.94;30.62;102341.25;5004633;28;20042;-67
2023/05/18 07:31:20;;;;;;;4.22;2.17;;;;;;;13.96;30.93;102341.97;5000524;28;20065;-70
2023/05/18 07:33:48;;;;;;;4.50;2.30;;;;;;;14.03;30.80;102346.00;4993207;28;20057;-59
2023/05/18 07:36:16;;;;;;;5.10;2.28;;;;;;;14.08;30.94;102342.91;4998938;28;20053;-60
2023/05/18 07:38:44;;;;;;;5.18;2.50;;;;;;;14.13;30.29;102346.16;4997274;28;20112;-58
2023/05/18 07:41:12;;;;;;;5.63;2.20;;;;;;;14.19;30.50;102342.94;4993020;28;20058;-58
2023/05/18 07:43:40;;;;;;;5.13;2.33;;;;;;;14.25;30.82;102345.19;5002340;28;20108;-56
2023/05/18 07:46:10;;;;;;;6.38;2.38;;;;;;;14.30;30.41;102342.94;5001461;28;20556;-60
2023/05/18 07:48:38;;;;;;;6.20;2.38;;;;;;;14.34;30.34;102342.59;4995072;28;20497;-59
2023/05/18 07:51:07;;;;;;;6.47;2.45;;;;;;;14.36;29.69;102340.56;4996554;28;20038;-57
2023/05/18 07:53:36;;;;;;;3.63;2.25;;;;;;;14.41;30.25;102331.94;4992236;28;20056;-57
2023/05/18 07:56:05;;;;;;;6.35;2.58;;;;;;;14.43;29.46;102327.19;4998709;28;20050;-58
2023/05/18 07:58:33;;;;;;;4.13;2.15;;;;;;;14.49;29.83;102326.72;5002132;28;20042;-61
2023/05/18 08:01:02;;;;;;;4.30;2.30;;;;;;;14.51;29.81;102329.38;5000196;28;20514;-60
2023/05/18 08:03:31;;;;;;;5.10;2.20;;;;;;;14.54;29.27;102329.97;4996484;28;20119;-60
2023/05/18 08:06:00;;;;;;;7.00;2.17;;;;;;;14.58;29.82;102327.84;4998026;28;20133;-60
2023/05/18 08:08:28;;;;;;;4.80;2.28;;;;;;;14.61;29.54;102322.94;4997895;28;20042;-59
2023/05/18 08:10:57;;;;;;;5.57;2.35;;;;;;;14.64;29.19;102319.97;5003121;28;20039;-60
2023/05/18 08:13:25;;;;;;;5.03;2.20;;;;;;;14.68;29.05;102321.44;5006865;28;20132;-61
2023/05/18 08:15:53;;;;;;;6.25;2.30;;;;;;;14.74;29.44;102320.09;4999853;28;20081;-62
2023/05/18 08:18:39;;;;;;;5.38;2.33;;;;;;;14.82;30.27;102325.84;5003267;28;20052;-62
2023/05/18 08:21:08;;;;;;;5.78;2.20;;;;;;;14.90;30.12;102328.84;5003204;28;20061;-62
2023/05/18 08:23:37;;;;;;;4.88;2.00;;;;;;;15.00;29.51;102323.44;5005902;28;20048;-59
2023/05/18 08:26:07;;;;;;;4.75;2.30;;;;;;;15.07;29.24;102317.28;5005558;28;20049;-59
2023/05/18 08:28:35;;;;;;;5.00;1.95;;;;;;;15.17;29.50;102320.16;5009662;28;20053;-61
2023/05/18 08:31:02;;;;;;;5.28;2.28;;;;;;;15.23;29.26;102316.88;5011315;28;20471;-61
2023/05/18 08:33:31;;;;;;;6.15;2.40;;;;;;;15.30;28.57;102319.97;5013960;28;20042;-61
2023/05/18 08:36:00;;;;;;;5.22;2.22;;;;;;;15.36;28.76;102312.09;5006924;28;20050;-60
2023/05/18 08:38:28;;;;;;;5.32;1.90;;;;;;;15.40;28.63;102310.84;5014284;28;20041;-60
2023/05/18 08:41:04;;;;;;;5.03;2.33;;;;;;;15.43;27.86;102302.28;5000839;28;20043;-58
2023/05/18 08:43:33;;;;;;;4.75;1.90;;;;;;;15.49;28.25;102307.28;5011884;28;20141;-56
2023/05/18 08:46:05;;;;;;;4.32;2.08;;;;;;;15.54;27.96;102306.00;4994932;28;20053;-57
2023/05/18 08:48:33;;;;;;;;;;;;;;;15.26;28.55;102316.59;4997920;28;20130;-58
2023/05/18 08:51:04;;;;;;;3.83;1.90;;;;;;;15.54;28.48;102306.00;4998063;28;19921;-59
2023/05/18 08:53:33;;;;;;;4.90;1.98;;;;;;;15.59;28.68;102303.75;5004435;28;20049;-59
2023/05/18 08:56:01;;;;;;;3.83;1.70;;;;;;;15.63;28.24;102296.94;5001769;28;20046;-60
2023/05/18 08:58:34;;;;;;;3.70;2.33;;;;;;;15.69;28.12;102293.63;5002473;28;20060;-60
2023/05/18 09:01:04;;;;;;;6.40;2.20;;;;;;;15.69;27.58;102299.16;4999441;28;20418;-59
2023/05/18 09:03:32;;;;;;;6.53;2.63;;;;;;;15.70;27.35;102296.28;5005431;28;20045;-59
2023/05/18 09:06:02;;;;;;;4.75;2.10;;;;;;;15.73;27.96;102296.00;5016224;28;20050;-61
2023/05/18 09:08:31;;;;;;;6.07;2.22;;;;;;;15.75;27.70;102302.28;4998398;28;20052;-60
2023/05/18 09:11:02;;;;;;;4.60;1.90;;;;;;;15.78;27.47;102303.88;5003350;28;20053;-59
2023/05/18 09:13:30;;;;;;;4.93;2.20;;;;;;;15.76;27.83;102297.63;5002669;28;20062;-58
2023/05/18 09:15:58;;;;;;;4.63;1.98;;;;;;;15.80;27.23;102302.75;4998693;28;20140;-60
2023/05/18 09:18:26;;;;;;;3.60;1.85;;;;;;;15.83;27.65;102298.84;5002769;28;20184;-68
2023/05/18 09:20:55;;;;;;;4.35;2.00;;;;;;;15.86;27.91;102290.28;4997825;28;20056;-60
2023/05/18 09:23:23;;;;;;;5.50;2.40;;;;;;;15.86;26.97;102301.31;5005764;28;20700;-59
2023/05/18 09:25:53;;;;;;;4.97;2.20;;;;;;;15.93;27.23;102304.41;5003299;28;20048;-60
2023/05/18 09:28:28;;;;;;;4.28;2.40;;;;;;;15.94;26.36;102297.91;5001427;28;20045;-58
2023/05/18 09:30:55;;;;;;;5.78;2.20;;;;;;;15.94;27.40;102300.66;5001692;28;20143;-59
2023/05/18 09:33:23;;;;;;;5.22;1.98;;;;;;;15.97;27.14;102294.88;5006280;28;20066;-58
2023/05/18 09:35:52;;;;;;;4.18;2.10;;;;;;;15.99;27.41;102292.88;5004373;28;20052;-61
2023/05/18 09:38:22;;;;;;;3.63;1.92;;;;;;;16.04;26.83;102287.78;5001801;28;20038;-56
2023/05/18 09:40:50;;;;;;;4.18;1.83;;;;;;;16.06;27.31;102292.19;5002231;28;20064;-60
2023/05/18 09:43:20;;;;;;;6.03;2.40;;;;;;;16.13;27.68;102295.28;4992304;28;20049;-61
2023/05/18 09:45:49;;;;;;;5.22;2.28;;;;;;;16.12;26.87;102294.38;5004911;28;20049;-61
2023/05/18 09:48:17;;;;;;;4.60;2.00;;;;;;;16.19;27.46;102289.22;5005247;28;20054;-58
2023/05/18 09:50:45;;;;;;;4.10;1.70;;;;;;;16.24;27.40;102287.81;5005259;28;20456;-58
2023/05/18 09:53:14;;;;;;;4.85;2.28;;;;;;;16.30;27.60;102291.91;5003602;28;20089;-67
2023/05/18 09:55:47;;;;;;;6.43;2.40;;;;;;;16.36;26.59;102294.13;5028375;23;20467;-82
2023/05/18 09:58:16;;;;;;;5.10;2.60;;;;;;;16.36;26.91;102296.88;5006527;28;20552;-82
2023/05/18 10:00:50;;;;;;;5.35;2.03;;;;;;;16.44;26.99;102283.25;5010801;28;20037;-81
2023/05/18 10:03:21;;;;;;;4.32;1.75;;;;;;;16.46;26.82;102280.34;5009688;28;20117;-82
2023/05/18 10:05:49;;;;;;;4.38;2.00;;;;;;;16.50;27.10;102279.06;4996076;28;20045;-83
2023/05/18 10:08:18;;;;;;;5.47;2.42;;;;;;;16.56;26.93;102281.28;4985412;28;20157;-85
2023/05/18 10:10:49;;;;;;;4.63;2.10;;;;;;;16.63;27.19;102282.47;4996901;28;20561;-84
2023/05/18 10:13:19;;;;;;;4.60;2.60;;;;;;;16.64;26.40;102275.94;4990057;28;20568;-84
2023/05/18 10:15:52;;;;;;;6.47;2.40;;;;;;;16.70;26.43;102280.00;4986952;28;20117;-84
2023/05/18 10:18:22;;;;;;;5.13;2.50;;;;;;;16.73;26.91;102268.69;4991319;28;20493;-83
2023/05/18 10:20:52;;;;;;;4.22;2.25;;;;;;;16.73;26.53;102265.94;4992910;28;20051;-85
2023/05/18 10:23:21;;;;;;;4.57;2.20;;;;;;;16.78;26.74;102263.59;4989814;28;20050;-84
2023/05/18 10:25:51;;;;;;;7.32;2.30;;;;;;;16.79;26.79;102262.59;4989567;28;20556;-82
2023/05/18 10:28:24;;;;;;;5.25;2.33;;;;;;;16.81;26.52;102260.56;4988255;28;20058;-83
2023/05/18 10:30:56;;;;;;;4.78;2.20;;;;;;;16.84;26.29;102260.25;4987635;28;20276;-83
2023/05/18 10:33:26;;;;;;;5.32;2.90;;;;;;;16.84;26.29;102263.03;4987868;28;20517;-84
2023/05/18 10:35:57;;;;;;;5.40;2.30;;;;;;;16.87;26.44;102249.81;5001576;28;20122;-83
2023/05/18 10:38:27;;;;;;;4.75;2.13;;;;;;;16.90;26.55;102249.53;4988978;28;20060;-82
2023/05/18 10:40:58;;;;;;;3.97;2.35;;;;;;;16.92;26.33;102244.72;5003093;28;20409;-83
2023/05/18 10:43:28;;;;;;;4.60;2.45;;;;;;;16.94;26.13;102245.44;4987363;28;20049;-81
2023/05/18 10:45:59;;;;;;;6.20;2.30;;;;;;;16.97;26.64;102247.97;4986142;28;20651;-82
2023/05/18 10:48:29;;;;;;;4.55;2.28;;;;;;;16.98;26.25;102252.50;4986146;28;20042;-77
2023/05/18 10:50:58;;;;;;;4.78;2.30;;;;;;;17.01;26.25;102243.88;4985563;28;20063;-77
2023/05/18 10:53:28;;;;;;;4.88;1.70;;;;;;;17.05;26.28;102247.25;4983778;28;20042;-76
2023/05/18 10:55:56;;;;;;;4.82;2.08;;;;;;;17.07;26.68;102250.75;4985103;28;20127;-77
2023/05/18 10:58:26;;;;;;;4.40;2.05;;;;;;;17.17;26.25;102250.75;4988304;28;20054;-77
2023/05/18 11:00:58;;;;;;;4.78;2.00;;;;;;;17.19;26.03;102252.38;4985834;28;20042;-77
2023/05/18 11:03:28;;;;;;;3.20;1.63;;;;;;;17.24;26.26;102251.91;4984902;28;20050;-77
2023/05/18 11:06:06;;;;;;;5.53;2.08;;;;;;;17.33;25.65;102248.28;4985331;28;20559;-78
2023/05/18 11:08:41;;;;;;;6.70;2.28;;;;;;;17.31;26.02;102247.59;4993981;28;20074;-78
2023/05/18 11:11:09;;;;;;;5.80;2.50;;;;;;;17.34;26.00;102250.91;4986935;28;20081;-78
2023/05/18 11:13:43;;;;;;;4.85;3.00;;;;;;;17.27;25.47;102238.69;4989828;28;20052;-83
2023/05/18 11:16:12;;;;;;;4.60;2.38;;;;;;;17.31;25.73;102234.63;4990224;28;20053;-78
2023/05/18 11:18:43;;;;;;;5.40;2.15;;;;;;;17.29;25.91;102233.88;4987555;28;20069;-78
2023/05/18 11:21:33;;;;;;;4.88;2.30;;;;;;;17.22;24.03;102231.84;4991154;28;20069;-77
2023/05/18 11:24:24;;;;;;;5.85;2.42;;;;;;;17.21;24.05;102230.09;4992400;28;20351;-77
2023/05/18 11:26:54;;;;;;;5.45;2.40;;;;;;;17.23;25.06;102228.06;4987230;28;20046;-77
2023/05/18 11:29:24;;;;;;;4.80;1.75;;;;;;;17.26;25.42;102214.78;4988152;28;20038;-78
2023/05/18 11:31:55;;;;;;;4.75;2.38;;;;;;;17.22;25.55;102218.88;4988317;28;20053;-77
2023/05/18 11:34:44;;;;;;;4.63;2.40;;;;;;;17.18;24.38;102222.94;4998572;28;20069;-77
2023/05/18 11:37:14;;;;;;;5.15;2.15;;;;;;;17.22;25.67;102210.59;4985339;28;20058;-77
2023/05/18 11:39:52;;;;;;;5.63;2.25;;;;;;;17.27;25.64;102211.00;4995346;28;20047;-77
2023/05/18 11:42:22;;;;;;;9.13;3.10;;;;;;;17.15;25.14;102217.72;4987576;28;20125;-77
2023/05/18 11:44:54;;;;;;;5.13;2.08;;;;;;;17.26;25.41;102216.69;4989596;28;20046;-77